Time;durP1;ratioP1;P1;durP2;ratioP2;P2;SDS_P1;SDS_P2;PMS_P1;PMS_P2;Temp;Humidity;BMP_temperature;BMP_pressure;BME280_temperature;BME280_humidity;BME280_pressure;Samples;Min_cycle;Max_cycle;Signal;HPM_P1;HPM_P2
2022/06/11 00:01:31;;;;;;;25.90;19.27;;;;;;;18.78;100.00;98532.41;5029445;28;20181;-87
2022/06/11 00:04:02;;;;;;;24.77;19.03;;;;;;;18.28;100.00;98456.44;5029102;28;20201;-87
2022/06/11 00:06:29;;;;;;;24.97;19.30;;;;;;;18.81;100.00;98538.38;5011444;28;20174;-86
2022/06/11 00:08:56;;;;;;;25.47;19.77;;;;;;;18.06;100.00;98395.88;5030696;28;20190;-87
2022/06/11 00:11:22;;;;;;;26.90;19.90;;;;;;;17.62;100.00;98347.31;5012815;28;20189;-87
2022/06/11 00:13:48;;;;;;;26.87;20.23;;;;;;;18.89;100.00;98524.66;5026873;28;20167;-87
2022/06/11 00:16:15;;;;;;;29.50;20.70;;;;;;;19.68;100.00;98636.44;5023876;28;20202;-87
2022/06/11 00:18:42;;;;;;;28.47;20.63;;;;;;;19.46;100.00;98572.34;5026428;28;20241;-86
2022/06/11 00:21:10;;;;;;;30.30;20.93;;;;;;;19.55;100.00;98585.16;5034443;28;20171;-86
2022/06/11 00:23:36;;;;;;;30.27;22.17;;;;;;;18.25;100.00;98401.78;5030650;28;20167;-87
2022/06/11 00:26:03;;;;;;;28.83;21.73;;;;;;;18.77;100.00;98438.38;5025066;28;20167;-87
2022/06/11 00:28:28;;;;;;;28.77;21.73;;;;;;;19.16;100.00;98511.72;5028935;28;20199;-87
2022/06/11 00:30:54;;;;;;;30.57;21.90;;;;;;;18.93;100.00;98446.84;5031600;28;20167;-85
2022/06/11 00:33:20;;;;;;;32.60;21.43;;;;;;;16.45;100.00;98070.34;5032571;28;20198;-86
2022/06/11 00:35:46;;;;;;;31.57;22.30;;;;;;;17.42;100.00;98220.19;5032465;28;20159;-85
2022/06/11 00:38:13;;;;;;;30.30;22.63;;;;;;;19.81;100.00;98620.09;5033130;28;20188;-85
2022/06/11 00:40:42;;;;;;;28.27;22.03;;;;;;;15.73;100.00;97956.38;5033356;28;20170;-86
2022/06/11 00:43:08;;;;;;;33.27;23.03;;;;;;;18.18;100.00;98348.88;5033092;28;20166;-85
2022/06/11 00:45:54;;;;;;;28.33;22.40;;;;;;;19.25;100.00;98499.72;5033344;28;20163;-87
2022/06/11 00:48:29;;;;;;;29.53;22.53;;;;;;;16.49;100.00;98009.88;5013645;28;20224;-86
2022/06/11 00:50:59;;;;;;;34.40;23.17;;;;;;;15.42;100.00;97833.91;5033300;28;20173;-87
2022/06/11 00:53:45;;;;;;;32.57;23.60;;;;;;;20.02;100.00;98606.28;5015577;28;20181;-87
2022/06/11 00:56:25;;;;;;;32.43;24.00;;;;;;;16.28;100.00;97997.16;5032159;28;20167;-86
2022/06/11 00:58:54;;;;;;;32.13;23.40;;;;;;;17.66;100.00;98230.41;5023764;28;20193;-86
2022/06/11 01:01:23;;;;;;;31.90;23.93;;;;;;;17.59;100.00;98203.13;5044626;23;20254;-86
2022/06/11 01:03:52;;;;;;;33.53;25.03;;;;;;;17.25;100.00;98199.75;5009842;28;20217;-86
2022/06/11 01:06:35;;;;;;;35.97;25.17;;;;;;;20.00;100.00;98631.97;5010747;28;20175;-85
2022/06/11 01:09:15;;;;;;;35.10;24.87;;;;;;;20.07;100.00;98625.09;5008187;28;20209;-86
2022/06/11 01:12:30;;;;;;;31.50;24.30;;;;;;;18.53;100.00;98351.31;5011070;28;20181;-86
2022/06/11 01:15:15;;;;;;;34.33;24.10;;;;;;;18.87;100.00;98393.88;4951834;29;20181;-87
2022/06/11 01:17:45;;;;;;;32.73;24.00;;;;;;;20.28;100.00;98624.97;4950674;29;20201;-86
2022/06/11 01:20:29;;;;;;;31.73;23.47;;;;;;;20.28;100.00;98624.97;4949829;29;20169;-87
2022/06/11 01:23:03;;;;;;;31.63;23.50;;;;;;;20.12;100.00;98622.47;4934341;29;20215;-87
2022/06/11 01:25:44;;;;;;;31.13;22.17;;;;;;;20.10;100.00;98630.22;4952601;29;20261;-87
2022/06/11 01:28:34;;;;;;;28.97;22.40;;;;;;;20.12;100.00;98628.47;4952440;29;20745;-86
2022/06/11 01:31:08;;;;;;;28.83;22.07;;;;;;;16.32;100.00;98002.25;4947730;29;20213;-86
2022/06/11 01:34:04;;;;;;;28.03;21.40;;;;;;;20.20;100.00;98619.00;4947898;29;20271;-86
2022/06/11 01:36:35;;;;;;;28.27;20.70;;;;;;;16.62;100.00;98006.47;4894848;29;20211;-85
2022/06/11 01:39:25;;;;;;;30.33;22.10;;;;;;;20.25;100.00;98634.41;4896231;29;20187;-86
2022/06/11 01:41:53;;;;;;;30.00;22.30;;;;;;;20.23;100.00;98616.41;4890440;29;20227;-86
2022/06/11 01:44:25;;;;;;;27.83;22.33;;;;;;;16.52;100.00;98003.06;4890372;29;20246;-86
2022/06/11 01:46:52;;;;;;;29.73;21.90;;;;;;;16.78;100.00;98020.94;4890508;29;20199;-87
2022/06/11 01:49:20;;;;;;;27.47;21.37;;;;;;;20.40;100.00;98630.03;4934576;29;20198;-86
2022/06/11 01:52:01;;;;;;;29.40;22.10;;;;;;;20.51;100.00;98629.94;4947797;29;20272;-87
2022/06/11 01:54:42;;;;;;;30.77;22.50;;;;;;;20.69;100.00;98624.59;4947575;29;20193;-86
2022/06/11 01:57:44;;;;;;;28.70;22.47;;;;;;;20.55;100.00;98623.88;4949286;29;20185;-86
2022/06/11 02:00:18;;;;;;;37.13;22.97;;;;;;;20.34;100.00;98622.34;4949930;29;20716;-86
2022/06/11 02:03:11;;;;;;;31.80;23.70;;;;;;;20.44;100.00;98623.09;4948649;29;20224;-86
2022/06/11 02:05:55;;;;;;;29.17;23.17;;;;;;;20.49;100.00;98622.22;4949608;29;20197;-87
2022/06/11 02:08:29;;;;;;;27.80;21.57;;;;;;;19.38;100.00;98480.84;4951938;29;20212;-85
2022/06/11 02:11:00;;;;;;;30.90;21.93;;;;;;;20.08;100.00;98633.66;4951143;29;20177;-86
2022/06/11 02:13:36;;;;;;;29.00;21.70;;;;;;;20.17;100.00;98634.44;4986977;28;20206;-87
2022/06/11 02:16:12;;;;;;;25.50;20.00;;;;;;;19.97;100.00;98628.56;4994344;28;20229;-86
2022/06/11 02:18:40;;;;;;;28.17;20.83;;;;;;;19.78;100.00;98614.13;5011835;28;20175;-86
2022/06/11 02:21:10;;;;;;;26.83;19.90;;;;;;;18.26;100.00;98414.63;5013915;28;20223;-86
2022/06/11 02:23:51;;;;;;;27.07;19.77;;;;;;;19.43;100.00;98625.44;5013395;28;20266;-87
2022/06/11 02:26:22;;;;;;;31.23;20.93;;;;;;;17.39;100.00;98343.00;5003292;28;20172;-87
2022/06/11 02:28:50;;;;;;;34.27;22.90;;;;;;;16.08;100.00;98147.81;5006579;28;20660;-87
2022/06/11 02:31:25;;;;;;;32.20;21.27;;;;;;;14.50;100.00;97905.94;5013250;28;20616;-87
2022/06/11 02:33:51;;;;;;;32.60;21.10;;;;;;;16.13;100.00;98186.97;5016740;28;20171;-87
2022/06/11 02:36:27;;;;;;;32.97;20.63;;;;;;;15.96;100.00;98193.72;5017733;28;20186;-87
2022/06/11 02:38:57;;;;;;;29.43;20.87;;;;;;;16.73;100.00;98313.97;5017984;28;20175;-87
2022/06/11 02:41:30;;;;;;;27.47;20.03;;;;;;;16.67;100.00;98301.22;5016621;28;20167;-88
2022/06/11 02:43:57;;;;;;;28.40;20.17;;;;;;;18.65;100.00;98643.56;5015956;28;20190;-88
2022/06/11 02:46:43;;;;;;;34.73;21.67;;;;;;;16.56;100.00;98279.03;5016314;28;20167;-88
2022/06/11 02:49:12;;;;;;;35.07;24.30;;;;;;;14.04;100.00;97915.84;5016333;28;20226;-86
2022/06/11 02:51:38;;;;;;;37.37;26.03;;;;;;;14.36;100.00;97922.84;5015978;28;20218;-86
2022/06/11 02:54:04;;;;;;;35.37;25.50;;;;;;;14.35;100.00;97913.50;5016170;28;20171;-86
2022/06/11 02:56:30;;;;;;;40.93;26.37;;;;;;;14.50;100.00;97957.69;5014581;28;20151;-88
2022/06/11 02:58:56;;;;;;;38.20;26.77;;;;;;;18.48;100.00;98609.38;5012398;28;20174;-89
2022/06/11 03:01:23;;;;;;;38.30;25.47;;;;;;;18.25;100.00;98607.63;5013745;28;20215;-86
2022/06/11 03:03:51;;;;;;;37.97;25.30;;;;;;;14.36;100.00;97954.25;4997903;28;20185;-88
2022/06/11 03:06:18;;;;;;;35.10;24.50;;;;;;;17.97;100.00;98585.41;5015002;28;20140;-87
2022/06/11 03:08:44;;;;;;;38.73;25.60;;;;;;;13.56;100.00;97808.72;5011217;28;20206;-87
2022/06/11 03:11:10;;;;;;;35.90;25.80;;;;;;;16.65;100.00;98319.91;5009428;28;20191;-87
2022/06/11 03:13:36;;;;;;;39.10;27.43;;;;;;;13.96;100.00;97881.00;5013337;28;20156;-86
2022/06/11 03:16:02;;;;;;;39.07;26.87;;;;;;;14.77;100.00;98005.41;5016289;28;20159;-87
2022/06/11 03:18:28;;;;;;;37.80;26.17;;;;;;;18.43;100.00;98593.94;5016530;28;20170;-86
2022/06/11 03:20:54;;;;;;;40.90;27.57;;;;;;;18.53;100.00;98587.16;5000945;28;20167;-86
2022/06/11 03:23:20;;;;;;;38.83;27.53;;;;;;;15.18;100.00;98028.50;5001194;28;20155;-86
2022/06/11 03:25:47;;;;;;;36.90;26.30;;;;;;;14.18;100.00;97870.13;5013924;28;20226;-85
2022/06/11 03:28:17;;;;;;;34.60;25.63;;;;;;;14.54;100.00;97950.94;5014343;28;20199;-86
2022/06/11 03:30:46;;;;;;;37.53;25.83;;;;;;;16.88;100.00;98302.94;5013798;28;20209;-88
2022/06/11 03:33:12;;;;;;;34.50;24.73;;;;;;;14.82;100.00;97975.69;5014357;28;20183;-88
2022/06/11 03:35:38;;;;;;;34.80;24.37;;;;;;;14.18;100.00;97852.31;5014611;28;20179;-87
2022/06/11 03:38:07;;;;;;;34.53;25.60;;;;;;;14.49;100.00;97917.81;4996570;28;20246;-86
2022/06/11 03:40:34;;;;;;;36.57;24.97;;;;;;;14.69;100.00;97948.47;4997408;28;20163;-88
2022/06/11 03:43:00;;;;;;;34.63;24.20;;;;;;;16.29;100.00;98239.75;5014165;28;20171;-87
2022/06/11 03:45:27;;;;;;;34.33;24.67;;;;;;;16.19;100.00;98189.53;5014830;28;20159;-87
2022/06/11 03:47:53;;;;;;;40.17;25.10;;;;;;;14.91;100.00;97987.63;5014355;28;20222;-86
2022/06/11 03:50:23;;;;;;;33.63;24.10;;;;;;;18.90;100.00;98613.59;5014891;28;20255;-86
2022/06/11 03:52:53;;;;;;;34.20;24.20;;;;;;;14.80;100.00;97923.03;5013968;28;20195;-86
2022/06/11 03:55:20;;;;;;;35.27;24.57;;;;;;;14.65;100.00;97896.66;4997753;28;20162;-87
2022/06/11 03:57:46;;;;;;;29.87;22.67;;;;;;;16.85;100.00;98267.13;4999602;28;20222;-86
2022/06/11 04:00:16;;;;;;;31.43;23.67;;;;;;;15.41;100.00;98044.69;5015665;28;20178;-86
2022/06/11 04:02:42;;;;;;;31.23;22.87;;;;;;;14.98;100.00;97953.66;4996116;28;20217;-85
2022/06/11 04:05:15;;;;;;;33.83;23.63;;;;;;;14.00;100.00;97808.97;5013167;28;20191;-88
2022/06/11 04:07:41;;;;;;;30.77;23.27;;;;;;;17.63;100.00;98399.34;5012926;28;20254;-87
2022/06/11 04:10:09;;;;;;;31.53;23.33;;;;;;;15.17;100.00;97942.66;5013877;28;20176;-87
2022/06/11 04:12:35;;;;;;;31.67;22.73;;;;;;;19.32;100.00;98639.97;5013344;28;20171;-86
2022/06/11 04:15:01;;;;;;;31.97;23.60;;;;;;;16.97;100.00;98273.13;4996629;28;20648;-86
2022/06/11 04:17:31;;;;;;;33.47;24.97;;;;;;;15.40;100.00;98001.34;5014301;28;20171;-85
2022/06/11 04:19:57;;;;;;;32.73;24.40;;;;;;;15.59;100.00;98028.63;4994589;28;20214;-85
2022/06/11 04:22:23;;;;;;;33.03;24.50;;;;;;;19.27;100.00;98646.84;5009878;28;20175;-86
2022/06/11 04:24:49;;;;;;;33.60;23.63;;;;;;;15.40;100.00;97986.91;5010331;28;20176;-86
2022/06/11 04:27:17;;;;;;;34.67;24.40;;;;;;;15.43;100.00;97992.00;5009112;28;20195;-86
2022/06/11 04:29:49;;;;;;;33.27;24.77;;;;;;;16.61;100.00;98216.88;5008998;28;20183;-87
2022/06/11 04:32:16;;;;;;;33.30;24.27;;;;;;;15.74;100.00;98067.75;5009234;28;20217;-86
2022/06/11 04:34:44;;;;;;;33.47;24.83;;;;;;;15.80;100.00;98051.63;5013814;28;20180;-85
2022/06/11 04:37:13;;;;;;;32.43;24.43;;;;;;;19.71;100.00;98674.09;5012557;28;20175;-86
2022/06/11 04:39:42;;;;;;;33.73;25.73;;;;;;;15.90;100.00;98031.19;5012354;28;20274;-88
2022/06/11 04:42:11;;;;;;;35.87;26.23;;;;;;;19.88;100.00;98668.03;5013152;28;20175;-86
2022/06/11 04:44:38;;;;;;;33.30;25.83;;;;;;;15.69;100.00;97998.03;4997286;28;20191;-87
2022/06/11 04:47:04;;;;;;;36.97;27.37;;;;;;;19.82;100.00;98674.91;5016791;28;20174;-87
2022/06/11 04:49:33;;;;;;;35.63;25.93;;;;;;;15.78;100.00;98013.34;5017269;28;20151;-87
2022/06/11 04:51:58;;;;;;;37.93;26.83;;;;;;;18.67;100.00;98527.31;5012694;28;20163;-88
2022/06/11 04:54:24;;;;;;;36.17;27.07;;;;;;;16.33;100.00;98184.44;4983564;28;20179;-86
2022/06/11 04:56:49;;;;;;;40.13;26.67;;;;;;;19.14;100.00;98696.50;5001258;28;20182;-88
2022/06/11 04:59:15;;;;;;;29.13;20.83;;;;;;;17.61;100.00;98421.50;4981856;28;20202;-88
2022/06/11 05:01:42;;;;;;;19.60;14.57;;;;;;;14.73;100.00;97948.47;4999742;28;20219;-88
2022/06/11 05:04:10;;;;;;;19.80;14.10;;;;;;;14.89;100.00;97981.66;4999985;28;20191;-88
2022/06/11 05:06:39;;;;;;;21.17;14.87;;;;;;;16.45;100.00;98245.78;5004109;28;20163;-87
2022/06/11 05:09:06;;;;;;;20.33;14.37;;;;;;;15.09;100.00;98041.19;5005450;28;20265;-86
2022/06/11 05:11:32;;;;;;;20.03;14.37;;;;;;;18.58;100.00;98640.13;4986117;28;20191;-86
2022/06/11 05:13:58;;;;;;;29.93;19.77;;;;;;;16.37;100.00;98248.28;5002912;28;20182;-85
2022/06/11 05:16:24;;;;;;;33.07;23.70;;;;;;;15.13;100.00;98014.88;5009956;28;20256;-87
2022/06/11 05:18:50;;;;;;;33.70;23.80;;;;;;;15.60;100.00;98087.28;5011135;28;20159;-87
2022/06/11 05:21:16;;;;;;;36.80;24.90;;;;;;;15.23;100.00;97974.13;5011049;28;20163;-88
2022/06/11 05:23:42;;;;;;;39.23;24.77;;;;;;;16.18;100.00;98133.38;5013350;28;20160;-88
2022/06/11 05:26:09;;;;;;;34.97;24.90;;;;;;;17.40;100.00;98308.91;5001426;28;20207;-87
2022/06/11 05:28:35;;;;;;;35.33;24.63;;;;;;;15.34;100.00;97956.28;5017441;28;20202;-87
2022/06/11 05:31:01;;;;;;;38.20;25.87;;;;;;;20.07;100.00;98717.59;5017537;28;20198;-87
2022/06/11 05:33:28;;;;;;;32.37;24.30;;;;;;;15.78;100.00;97985.28;5015465;28;20543;-87
2022/06/11 05:35:54;;;;;;;30.60;22.70;;;;;;;16.17;100.00;98047.41;5013220;28;20178;-87
2022/06/11 05:38:24;;;;;;;31.27;23.20;;;;;;;19.82;100.00;98637.22;5015970;28;20186;-86
2022/06/11 05:40:54;;;;;;;28.13;21.90;;;;;;;20.40;100.00;98722.59;5018742;28;20162;-86
2022/06/11 05:43:21;;;;;;;25.60;18.80;;;;;;;16.57;100.00;98110.41;5020191;28;20151;-86
2022/06/11 05:45:54;;;;;;;28.77;19.50;;;;;;;20.34;100.00;98742.31;5019086;28;20176;-86
2022/06/11 05:48:23;;;;;;;23.63;17.13;;;;;;;17.02;100.00;98194.72;5016488;28;20179;-86
2022/06/11 05:50:52;;;;;;;23.50;18.57;;;;;;;15.95;100.00;98010.81;5014825;28;20227;-86
2022/06/11 05:53:22;;;;;;;23.47;17.53;;;;;;;16.54;100.00;98125.72;5014601;28;20159;-86
2022/06/11 05:55:53;;;;;;;21.03;16.97;;;;;;;15.80;100.00;98042.25;5016045;28;20198;-88
2022/06/11 05:58:23;;;;;;;24.70;17.30;;;;;;;15.60;100.00;98015.84;5015695;28;20263;-87
2022/06/11 06:00:50;;;;;;;23.60;17.27;;;;;;;15.34;100.00;98007.28;5016470;28;20203;-87
2022/06/11 06:03:18;;;;;;;26.57;19.00;;;;;;;15.77;100.00;98077.97;5015069;28;20170;-87
2022/06/11 06:05:44;;;;;;;21.37;15.03;;;;;;;19.69;100.00;98750.31;5013537;28;20323;-88
2022/06/11 06:08:13;;;;;;;16.33;12.20;;;;;;;14.72;100.00;97979.06;4999541;28;20215;-86
2022/06/11 06:10:49;;;;;;;14.10;10.60;;;;;;;15.45;100.00;98043.88;5015833;28;20181;-87
2022/06/11 06:15:59;;;;;;;12.67;9.87;;;;;;;17.56;100.00;98342.19;5016419;28;20222;-86
2022/06/11 06:18:26;;;;;;;13.63;10.60;;;;;;;16.24;100.00;98078.03;5016581;28;20160;-86
2022/06/11 06:20:52;;;;;;;9.00;7.20;;;;;;;16.83;100.00;98164.91;5000356;28;20186;-87
2022/06/11 06:23:18;;;;;;;9.30;7.10;;;;;;;18.34;100.00;98408.59;5015826;28;20203;-87
2022/06/11 06:25:43;;;;;;;9.43;7.90;;;;;;;20.97;100.00;98787.34;5012310;28;20188;-90
2022/06/11 06:28:09;;;;;;;12.33;9.13;;;;;;;21.39;100.00;98781.88;5009845;28;20195;-85
2022/06/11 06:30:38;;;;;;;10.70;8.47;;;;;;;18.92;100.00;98325.47;5013889;28;20176;-86
2022/06/11 06:33:04;;;;;;;9.73;7.20;;;;;;;20.12;100.00;98481.13;4998554;28;20183;-86
2022/06/11 06:35:30;;;;;;;8.43;6.43;;;;;;;19.95;100.00;98464.16;5012573;28;20179;-87
2022/06/11 06:37:56;;;;;;;9.60;7.33;;;;;;;18.22;100.00;98160.97;4999110;28;20187;-86
2022/06/11 06:40:24;;;;;;;8.37;7.17;;;;;;;22.11;100.00;98797.44;5016199;28;20186;-87
2022/06/11 06:42:50;;;;;;;11.33;8.20;;;;;;;20.10;100.00;98441.75;5012987;28;20187;-87
2022/06/11 06:45:16;;;;;;;10.07;7.60;;;;;;;22.91;100.00;98815.25;4989918;28;20207;-89
2022/06/11 06:47:42;;;;;;;9.30;6.90;;;;;;;23.04;100.00;98802.16;5008189;28;20220;-85
2022/06/11 06:50:09;;;;;;;9.10;6.70;;;;;;;23.41;100.00;98801.56;5015826;28;20174;-86
2022/06/11 06:52:34;;;;;;;8.93;6.87;;;;;;;21.33;100.00;98405.13;5016591;28;20171;-84
2022/06/11 06:55:00;;;;;;;8.37;7.30;;;;;;;19.56;100.00;98183.78;5009533;28;20159;-87
2022/06/11 06:57:26;;;;;;;12.00;10.30;;;;;;;19.15;100.00;98067.00;5010191;28;20160;-87
2022/06/11 06:59:52;;;;;;;15.10;10.93;;;;;;;21.18;100.00;98429.34;5014423;28;20144;-86
2022/06/11 07:02:18;;;;;;;13.73;12.13;;;;;;;20.02;100.00;98321.91;4994804;28;20230;-86
2022/06/11 07:04:44;;;;;;;14.60;10.93;;;;;;;21.10;100.00;98535.00;4981268;28;20213;-85
2022/06/11 07:07:17;;;;;;;13.13;10.60;;;;;;;18.65;100.00;98197.47;4997458;28;20252;-85
2022/06/11 07:09:56;;;;;;;12.93;10.63;;;;;;;19.40;100.00;98393.56;5001344;28;20171;-87
2022/06/11 07:12:25;;;;;;;15.53;11.07;;;;;;;19.35;100.00;98434.63;4984203;28;20190;-89
2022/06/11 07:14:54;;;;;;;11.47;9.93;;;;;;;18.91;100.00;98431.47;4990751;28;20206;-89
2022/06/11 07:17:21;;;;;;;14.50;10.63;;;;;;;17.44;100.00;98180.94;4981647;28;20178;-87
2022/06/11 07:19:58;;;;;;;13.87;10.87;;;;;;;18.34;100.00;98308.66;5017981;28;20205;-86
2022/06/11 07:22:32;;;;;;;13.93;10.90;;;;;;;20.12;100.00;98655.88;5024562;28;20162;-89
2022/06/11 07:25:00;;;;;;;14.53;11.90;;;;;;;17.21;100.00;98189.56;5022242;28;20181;-88
2022/06/11 07:27:29;;;;;;;14.43;11.43;;;;;;;16.90;100.00;98198.97;5022846;28;20189;-86
2022/06/11 07:29:59;;;;;;;13.00;10.80;;;;;;;16.59;100.00;98136.78;4977090;28;20206;-88
2022/06/11 07:32:28;;;;;;;13.70;11.00;;;;;;;18.69;100.00;98506.78;5010086;28;20182;-86
2022/06/11 07:34:54;;;;;;;17.40;13.47;;;;;;;18.19;100.00;98423.16;4995404;28;20163;-88
2022/06/11 07:37:19;;;;;;;19.47;14.83;;;;;;;16.02;100.00;98062.69;4980482;28;20186;-88
2022/06/11 07:39:45;;;;;;;18.33;15.17;;;;;;;19.88;100.00;98754.50;5000205;28;20229;-88
2022/06/11 07:42:11;;;;;;;18.37;15.40;;;;;;;16.55;100.00;98242.41;5001010;28;20167;-88
2022/06/11 07:44:38;;;;;;;21.20;16.47;;;;;;;18.08;100.00;98491.47;5003751;28;20178;-87
2022/06/11 07:47:04;;;;;;;19.53;14.70;;;;;;;16.97;100.00;98362.63;4996428;28;20167;-85
2022/06/11 07:49:29;;;;;;;15.33;12.40;;;;;;;16.48;100.00;98294.31;4994783;28;20166;-88
2022/06/11 07:51:55;;;;;;;17.17;13.27;;;;;;;19.07;100.00;98771.75;4978153;28;20171;-87
2022/06/11 07:54:20;;;;;;;19.27;12.97;;;;;;;18.32;100.00;98658.88;4996126;28;20175;-88
2022/06/11 07:56:46;;;;;;;15.97;11.03;;;;;;;16.19;100.00;98364.88;4996374;28;20597;-89
2022/06/11 07:59:12;;;;;;;20.90;12.90;;;;;;;15.48;100.00;98249.66;4997281;28;20179;-89
2022/06/11 08:01:37;;;;;;;31.03;15.93;;;;;;;16.49;100.00;98452.72;5012885;28;20250;-85
2022/06/11 08:04:03;;;;;;;22.27;15.87;;;;;;;18.62;100.00;98770.00;5017638;28;20186;-85
2022/06/11 08:06:28;;;;;;;25.70;17.37;;;;;;;18.72;100.00;98753.81;5006756;28;20175;-84
2022/06/11 08:08:54;;;;;;;25.60;17.87;;;;;;;18.05;100.00;98622.13;4994523;28;20715;-84
2022/06/11 08:11:19;;;;;;;21.07;15.17;;;;;;;18.43;100.00;98665.69;4993530;28;20171;-84
2022/06/11 08:13:46;;;;;;;19.33;13.10;;;;;;;17.29;100.00;98458.97;4992723;28;20537;-85
2022/06/11 08:16:12;;;;;;;15.93;11.30;;;;;;;17.07;100.00;98424.84;4993001;28;20206;-84
2022/06/11 08:18:38;;;;;;;16.53;11.93;;;;;;;17.58;100.00;98532.41;4994977;28;21163;-86
2022/06/11 08:21:04;;;;;;;15.73;11.87;;;;;;;18.99;100.00;98760.63;4977821;28;20171;-84
2022/06/11 08:23:30;;;;;;;16.23;10.40;;;;;;;18.60;100.00;98696.50;4994489;28;20662;-85
2022/06/11 08:25:56;;;;;;;14.17;10.83;;;;;;;18.35;100.00;98694.78;4995716;28;20255;-85
2022/06/11 08:28:22;;;;;;;14.33;10.57;;;;;;;18.89;100.00;98761.50;4998269;28;20191;-86
2022/06/11 08:30:49;;;;;;;16.37;11.37;;;;;;;18.22;100.00;98646.06;4999947;28;20171;-86
2022/06/11 08:33:15;;;;;;;13.70;10.60;;;;;;;16.67;100.00;98354.88;4997977;28;20168;-86
2022/06/11 08:35:41;;;;;;;11.23;9.47;;;;;;;18.98;100.00;98755.53;4981262;28;20178;-86
2022/06/11 08:38:07;;;;;;;12.63;9.77;;;;;;;17.43;100.00;98490.56;4997872;28;20171;-87
2022/06/11 08:40:40;;;;;;;13.13;10.23;;;;;;;19.00;100.00;98746.97;4997983;28;20179;-87
2022/06/11 08:43:14;;;;;;;13.23;9.90;;;;;;;18.88;100.00;98759.78;4994818;28;20622;-85
2022/06/11 08:45:44;;;;;;;14.47;11.00;;;;;;;18.32;100.00;98674.25;4994968;28;20286;-87
2022/06/11 08:48:24;;;;;;;15.07;11.17;;;;;;;17.19;100.00;98480.28;4994960;28;20278;-87
2022/06/11 08:51:09;;;;;;;17.40;11.33;;;;;;;18.89;100.00;98748.69;4997842;28;20175;-87
2022/06/11 08:53:37;;;;;;;13.63;10.73;;;;;;;18.90;100.00;98796.53;5014152;28;20179;-86
2022/06/11 08:56:03;;;;;;;14.80;10.60;;;;;;;17.12;100.00;98484.50;5020784;28;20160;-85
2022/06/11 08:58:40;;;;;;;16.37;11.00;;;;;;;18.13;100.00;98648.59;5010020;28;20163;-85
2022/06/11 09:01:11;;;;;;;14.87;10.50;;;;;;;18.87;100.00;98773.44;5009576;28;20261;-86
2022/06/11 09:03:49;;;;;;;15.27;11.10;;;;;;;18.62;100.00;98741.81;5007014;28;20199;-86
2022/06/11 09:06:31;;;;;;;16.73;10.80;;;;;;;16.86;100.00;98479.34;5008446;28;20171;-86
2022/06/11 09:09:18;;;;;;;15.47;10.83;;;;;;;18.75;100.00;98779.44;4998587;28;20274;-86
2022/06/11 09:12:04;;;;;;;14.13;10.33;;;;;;;17.49;100.00;98654.38;4996953;28;20651;-85
2022/06/11 09:14:36;;;;;;;14.97;10.63;;;;;;;18.44;100.00;98794.72;4998318;28;20163;-85
2022/06/11 09:17:31;;;;;;;17.43;10.40;;;;;;;17.75;100.00;98787.59;5002268;28;20164;-83
2022/06/11 09:20:35;;;;;;;18.20;11.07;;;;;;;17.65;100.00;98794.41;4996367;28;20267;-84
2022/06/11 09:23:08;;;;;;;16.47;11.27;;;;;;;17.51;100.00;98755.88;4995613;28;20250;-83
2022/06/11 09:25:59;;;;;;;16.07;10.67;;;;;;;17.89;100.00;98816.72;4995898;28;20171;-84
2022/06/11 09:28:40;;;;;;;19.27;10.73;;;;;;;17.73;100.00;98804.66;5008928;28;20214;-82
2022/06/11 09:31:11;;;;;;;16.37;11.27;;;;;;;17.36;100.00;98780.53;4996262;28;20163;-81
2022/06/11 09:33:51;;;;;;;18.07;10.97;;;;;;;17.44;100.00;98776.31;4995518;28;20167;-81
2022/06/11 09:36:44;;;;;;;15.57;11.23;;;;;;;17.75;100.00;98790.16;4996266;28;20194;-82
2022/06/11 09:39:12;;;;;;;18.63;12.30;;;;;;;17.99;100.00;98834.69;4996149;28;20168;-83
2022/06/11 09:41:58;;;;;;;13.83;10.50;;;;;;;17.01;100.00;98711.22;4995648;28;20263;-84
2022/06/11 09:44:49;;;;;;;14.97;10.40;;;;;;;17.53;100.00;98778.91;4999394;28;20182;-84
2022/06/11 09:47:29;;;;;;;12.53;9.10;;;;;;;17.85;100.00;98836.34;5011461;28;20656;-84
2022/06/11 09:50:23;;;;;;;16.00;10.40;;;;;;;17.79;100.00;98797.91;5008276;28;20232;-83
2022/06/11 09:53:14;;;;;;;14.20;10.87;;;;;;;18.10;100.00;98852.69;5003032;28;20575;-83
2022/06/11 09:56:31;;;;;;;15.90;11.07;;;;;;;17.93;100.00;98852.59;4996647;28;20174;-83
2022/06/11 09:59:33;;;;;;;16.77;11.87;;;;;;;18.09;100.00;98846.72;4922239;29;20182;-85
2022/06/11 10:05:19;;;;;;;17.47;13.03;;;;;;;18.32;100.00;98853.66;4889060;29;20195;-85
2022/06/11 10:07:51;;;;;;;16.60;11.83;;;;;;;18.23;100.00;98845.06;4872584;29;20229;-84
2022/06/11 10:10:33;;;;;;;15.27;11.83;;;;;;;17.30;100.00;98676.47;4890013;29;20193;-84
2022/06/11 10:13:05;;;;;;;15.23;11.50;;;;;;;17.18;100.00;98639.72;4891243;29;20695;-83
2022/06/11 10:15:34;;;;;;;16.10;11.53;;;;;;;17.64;100.00;98692.84;4891393;29;20191;-87
2022/06/11 10:18:14;;;;;;;15.90;11.73;;;;;;;18.47;100.00;98825.50;4887429;29;20171;-87
2022/06/11 10:20:48;;;;;;;15.67;11.23;;;;;;;18.56;100.00;98787.97;4890503;29;20192;-85
2022/06/11 10:23:24;;;;;;;14.40;11.00;;;;;;;17.80;100.00;98617.78;4888106;29;20187;-85
2022/06/11 10:26:05;;;;;;;14.90;11.13;;;;;;;19.38;100.00;98837.66;4897142;29;20187;-85
2022/06/11 10:28:36;;;;;;;13.20;10.57;;;;;;;18.87;100.00;98706.75;4876298;29;20223;-86
2022/06/11 10:31:25;;;;;;;12.07;9.77;;;;;;;19.92;100.00;98835.84;4882536;29;20207;-86
2022/06/11 10:33:59;;;;;;;11.50;9.10;;;;;;;19.60;100.00;98797.41;4922036;29;20654;-86
2022/06/11 10:36:31;;;;;;;13.10;9.03;;;;;;;19.06;100.00;98692.22;4923084;29;20201;-87
2022/06/11 10:39:12;;;;;;;11.30;9.20;;;;;;;19.30;100.00;98736.66;4927177;29;20154;-85
2022/06/11 10:41:41;;;;;;;12.33;9.30;;;;;;;20.05;100.00;98840.09;4938574;28;20683;-84
2022/06/11 10:44:09;;;;;;;14.30;10.17;;;;;;;20.01;100.00;98838.41;4997454;28;20167;-84
2022/06/11 10:46:36;;;;;;;14.57;10.80;;;;;;;19.68;100.00;98741.75;4995212;28;20242;-82
2022/06/11 10:49:02;;;;;;;13.43;10.80;;;;;;;18.83;100.00;98581.97;4995805;28;20254;-83
2022/06/11 10:51:33;;;;;;;15.13;12.00;;;;;;;20.11;100.00;98769.84;4995111;28;20621;-83
2022/06/11 10:54:22;;;;;;;13.63;9.17;;;;;;;20.32;100.00;98729.50;4994197;28;20171;-83
2022/06/11 10:56:54;;;;;;;9.90;7.70;;;;;;;21.72;100.00;98845.94;4994170;28;20168;-83
2022/06/11 10:59:44;;;;;;;9.43;7.30;;;;;;;20.41;100.00;98649.69;4994600;28;20163;-87
2022/06/11 11:02:48;;;;;;;8.43;6.37;;;;;;;17.43;100.00;98206.56;5000605;28;20274;-88
2022/06/11 11:05:18;;;;;;;23.03;12.67;;;;;;;17.16;100.00;98196.38;4977509;28;20180;-91
2022/06/11 11:07:51;;;;;;;9.07;7.07;;;;;;;20.89;100.00;98841.44;4977321;28;20204;-88
2022/06/11 11:10:36;;;;;;;9.67;6.23;;;;;;;16.74;100.00;98172.56;4957741;29;20189;-86
2022/06/11 11:13:20;;;;;;;15.77;8.63;;;;;;;16.70;100.00;98160.63;4941415;29;20266;-86
2022/06/11 11:15:55;;;;;;;14.57;9.10;;;;;;;19.45;100.00;98555.25;4958709;29;20157;-88
2022/06/11 11:18:25;;;;;;;8.60;7.03;;;;;;;17.86;100.00;98264.47;4942616;29;20181;-86
2022/06/11 11:20:55;;;;;;;5.60;4.80;;;;;;;17.09;100.00;98141.84;4958687;29;20213;-85
2022/06/11 11:23:38;;;;;;;6.80;5.63;;;;;;;17.36;100.00;98192.09;4957932;29;20197;-85
2022/06/11 11:26:20;;;;;;;6.60;4.93;;;;;;;20.06;100.00;98669.63;4941778;29;20212;-87
2022/06/11 11:28:57;;;;;;;5.33;4.80;;;;;;;21.00;100.00;98821.63;4940943;29;20204;-87
2022/06/11 11:31:41;;;;;;;6.40;5.70;;;;;;;17.82;100.00;98201.34;4958122;29;20174;-87
2022/06/11 11:34:15;;;;;;;5.40;4.90;;;;;;;22.16;100.00;98811.13;4941287;29;20196;-86
2022/06/11 11:36:41;;;;;;;5.37;4.63;;;;;;;22.95;100.00;98828.97;4940876;29;20189;-88
2022/06/11 11:39:12;;;;;;;4.63;3.97;;;;;;;22.76;100.00;98556.56;4956585;29;20177;-87